sensor_id;sensor_type;location;lat;lon;timestamp;P1;durP1;ratioP1;P2;durP2;ratioP2
28968;SDS011;16076;51.194;6.642;2022-07-29T00:01:16;1.60;;;1.15;;
28968;SDS011;16076;51.194;6.642;2022-07-29T00:03:44;3.80;;;1.67;;
28968;SDS011;16076;51.194;6.642;2022-07-29T00:06:15;3.60;;;1.10;;
28968;SDS011;16076;51.194;6.642;2022-07-29T00:08:41;4.32;;;1.40;;
28968;SDS011;16076;51.194;6.642;2022-07-29T00:11:06;4.10;;;1.35;;
28968;SDS011;16076;51.194;6.642;2022-07-29T00:13:32;2.20;;;0.90;;
28968;SDS011;16076;51.194;6.642;2022-07-29T00:15:58;3.42;;;1.00;;
28968;SDS011;16076;51.194;6.642;2022-07-29T00:18:26;3.85;;;1.25;;
28968;SDS011;16076;51.194;6.642;2022-07-29T00:20:54;5.95;;;1.30;;
28968;SDS011;16076;51.194;6.642;2022-07-29T00:23:25;4.38;;;1.40;;
28968;SDS011;16076;51.194;6.642;2022-07-29T00:25:53;8.98;;;1.38;;
28968;SDS011;16076;51.194;6.642;2022-07-29T00:28:19;4.95;;;1.20;;
28968;SDS011;16076;51.194;6.642;2022-07-29T00:30:47;4.05;;;1.33;;
28968;SDS011;16076;51.194;6.642;2022-07-29T00:33:15;4.15;;;1.40;;
28968;SDS011;16076;51.194;6.642;2022-07-29T00:35:40;6.68;;;1.40;;
28968;SDS011;16076;51.194;6.642;2022-07-29T00:38:10;4.93;;;1.10;;
28968;SDS011;16076;51.194;6.642;2022-07-29T00:40:39;1.50;;;1.10;;
28968;SDS011;16076;51.194;6.642;2022-07-29T00:43:08;4.20;;;1.42;;
28968;SDS011;16076;51.194;6.642;2022-07-29T00:45:34;7.05;;;1.30;;
28968;SDS011;16076;51.194;6.642;2022-07-29T00:48:00;4.53;;;1.40;;
28968;SDS011;16076;51.194;6.642;2022-07-29T00:50:27;7.15;;;1.25;;
28968;SDS011;16076;51.194;6.642;2022-07-29T00:52:53;5.90;;;1.63;;
28968;SDS011;16076;51.194;6.642;2022-07-29T00:55:19;2.85;;;1.42;;
28968;SDS011;16076;51.194;6.642;2022-07-29T00:57:48;3.63;;;1.45;;
28968;SDS011;16076;51.194;6.642;2022-07-29T01:00:19;5.97;;;1.27;;
28968;SDS011;16076;51.194;6.642;2022-07-29T01:02:48;6.03;;;1.67;;
28968;SDS011;16076;51.194;6.642;2022-07-29T01:05:17;5.00;;;1.60;;
28968;SDS011;16076;51.194;6.642;2022-07-29T01:07:51;5.00;;;1.50;;
28968;SDS011;16076;51.194;6.642;2022-07-29T01:10:18;1.83;;;1.40;;
28968;SDS011;16076;51.194;6.642;2022-07-29T01:12:48;4.70;;;1.23;;
28968;SDS011;16076;51.194;6.642;2022-07-29T01:15:15;3.33;;;1.23;;
28968;SDS011;16076;51.194;6.642;2022-07-29T01:26:04;3.35;;;1.27;;
28968;SDS011;16076;51.194;6.642;2022-07-29T01:31:57;6.72;;;1.88;;
28968;SDS011;16076;51.194;6.642;2022-07-29T01:37:08;3.40;;;1.25;;
28968;SDS011;16076;51.194;6.642;2022-07-29T01:39:45;7.55;;;1.30;;
28968;SDS011;16076;51.194;6.642;2022-07-29T01:47:56;9.18;;;2.15;;
28968;SDS011;16076;51.194;6.642;2022-07-29T01:50:34;2.45;;;1.30;;
28968;SDS011;16076;51.194;6.642;2022-07-29T01:53:08;2.95;;;1.35;;
28968;SDS011;16076;51.194;6.642;2022-07-29T01:55:42;1.70;;;0.75;;
28968;SDS011;16076;51.194;6.642;2022-07-29T01:58:09;8.98;;;1.55;;
28968;SDS011;16076;51.194;6.642;2022-07-29T02:00:40;6.78;;;1.35;;
28968;SDS011;16076;51.194;6.642;2022-07-29T02:03:10;4.15;;;1.42;;
28968;SDS011;16076;51.194;6.642;2022-07-29T02:05:40;11.95;;;2.17;;
28968;SDS011;16076;51.194;6.642;2022-07-29T02:08:10;6.38;;;1.17;;
28968;SDS011;16076;51.194;6.642;2022-07-29T02:10:38;4.60;;;1.83;;
28968;SDS011;16076;51.194;6.642;2022-07-29T02:13:07;9.05;;;1.10;;
28968;SDS011;16076;51.194;6.642;2022-07-29T02:15:36;7.57;;;1.45;;
28968;SDS011;16076;51.194;6.642;2022-07-29T02:18:18;5.00;;;1.55;;
28968;SDS011;16076;51.194;6.642;2022-07-29T02:20:49;10.65;;;1.23;;
28968;SDS011;16076;51.194;6.642;2022-07-29T02:23:22;4.97;;;1.52;;
28968;SDS011;16076;51.194;6.642;2022-07-29T02:25:50;3.00;;;1.48;;
28968;SDS011;16076;51.194;6.642;2022-07-29T02:28:21;6.15;;;1.55;;
28968;SDS011;16076;51.194;6.642;2022-07-29T02:30:49;4.25;;;1.45;;
28968;SDS011;16076;51.194;6.642;2022-07-29T02:33:19;4.57;;;1.58;;
28968;SDS011;16076;51.194;6.642;2022-07-29T02:35:48;4.95;;;1.42;;
28968;SDS011;16076;51.194;6.642;2022-07-29T02:38:15;3.88;;;1.50;;
28968;SDS011;16076;51.194;6.642;2022-07-29T02:41:04;2.38;;;1.20;;
28968;SDS011;16076;51.194;6.642;2022-07-29T02:43:37;4.40;;;1.10;;
28968;SDS011;16076;51.194;6.642;2022-07-29T02:46:06;3.97;;;1.48;;
28968;SDS011;16076;51.194;6.642;2022-07-29T02:48:38;5.25;;;1.17;;
28968;SDS011;16076;51.194;6.642;2022-07-29T02:51:12;7.63;;;1.30;;
28968;SDS011;16076;51.194;6.642;2022-07-29T02:53:47;8.25;;;1.90;;
28968;SDS011;16076;51.194;6.642;2022-07-29T02:56:23;2.50;;;1.25;;
28968;SDS011;16076;51.194;6.642;2022-07-29T02:58:59;7.55;;;1.23;;
28968;SDS011;16076;51.194;6.642;2022-07-29T03:01:30;3.45;;;1.20;;
28968;SDS011;16076;51.194;6.642;2022-07-29T03:03:57;8.88;;;1.75;;
28968;SDS011;16076;51.194;6.642;2022-07-29T03:06:26;6.10;;;1.25;;
28968;SDS011;16076;51.194;6.642;2022-07-29T03:08:55;4.32;;;1.20;;
28968;SDS011;16076;51.194;6.642;2022-07-29T03:11:25;2.42;;;1.10;;
28968;SDS011;16076;51.194;6.642;2022-07-29T03:13:52;4.07;;;1.17;;
28968;SDS011;16076;51.194;6.642;2022-07-29T03:16:21;2.85;;;1.33;;
28968;SDS011;16076;51.194;6.642;2022-07-29T03:18:48;5.50;;;1.48;;
28968;SDS011;16076;51.194;6.642;2022-07-29T03:21:15;3.97;;;1.33;;
28968;SDS011;16076;51.194;6.642;2022-07-29T03:23:44;10.15;;;1.50;;
28968;SDS011;16076;51.194;6.642;2022-07-29T03:26:12;6.63;;;1.55;;
28968;SDS011;16076;51.194;6.642;2022-07-29T03:28:43;6.82;;;1.98;;
28968;SDS011;16076;51.194;6.642;2022-07-29T03:31:11;4.40;;;1.42;;
28968;SDS011;16076;51.194;6.642;2022-07-29T03:33:39;7.18;;;1.77;;
28968;SDS011;16076;51.194;6.642;2022-07-29T03:36:08;3.67;;;2.10;;
28968;SDS011;16076;51.194;6.642;2022-07-29T03:38:36;10.25;;;2.45;;
28968;SDS011;16076;51.194;6.642;2022-07-29T03:41:06;8.75;;;2.20;;
28968;SDS011;16076;51.194;6.642;2022-07-29T03:43:36;3.58;;;2.03;;
28968;SDS011;16076;51.194;6.642;2022-07-29T03:46:04;9.60;;;2.45;;
28968;SDS011;16076;51.194;6.642;2022-07-29T03:48:33;5.70;;;2.35;;
28968;SDS011;16076;51.194;6.642;2022-07-29T03:51:01;8.32;;;2.65;;
28968;SDS011;16076;51.194;6.642;2022-07-29T03:53:28;6.13;;;2.70;;
28968;SDS011;16076;51.194;6.642;2022-07-29T03:55:54;10.25;;;2.88;;
28968;SDS011;16076;51.194;6.642;2022-07-29T03:58:24;6.85;;;2.58;;
28968;SDS011;16076;51.194;6.642;2022-07-29T04:00:55;5.43;;;2.30;;
28968;SDS011;16076;51.194;6.642;2022-07-29T04:03:21;3.95;;;2.53;;
28968;SDS011;16076;51.194;6.642;2022-07-29T04:06:03;5.68;;;2.42;;
28968;SDS011;16076;51.194;6.642;2022-07-29T04:08:31;7.20;;;2.50;;
28968;SDS011;16076;51.194;6.642;2022-07-29T04:11:00;5.75;;;2.55;;
28968;SDS011;16076;51.194;6.642;2022-07-29T04:13:27;6.50;;;2.42;;
28968;SDS011;16076;51.194;6.642;2022-07-29T04:15:53;4.35;;;2.80;;
28968;SDS011;16076;51.194;6.642;2022-07-29T04:18:19;6.70;;;3.13;;
28968;SDS011;16076;51.194;6.642;2022-07-29T04:20:50;10.60;;;3.15;;
28968;SDS011;16076;51.194;6.642;2022-07-29T04:23:16;8.77;;;3.15;;
28968;SDS011;16076;51.194;6.642;2022-07-29T04:25:42;4.72;;;2.45;;
28968;SDS011;16076;51.194;6.642;2022-07-29T04:28:08;4.22;;;2.30;;
28968;SDS011;16076;51.194;6.642;2022-07-29T04:30:35;4.38;;;2.53;;
28968;SDS011;16076;51.194;6.642;2022-07-29T04:33:02;8.10;;;2.92;;
28968;SDS011;16076;51.194;6.642;2022-07-29T04:35:30;6.68;;;2.80;;
28968;SDS011;16076;51.194;6.642;2022-07-29T04:38:02;5.70;;;2.70;;
28968;SDS011;16076;51.194;6.642;2022-07-29T04:40:31;8.95;;;3.00;;
28968;SDS011;16076;51.194;6.642;2022-07-29T04:43:01;4.82;;;2.53;;
28968;SDS011;16076;51.194;6.642;2022-07-29T04:45:27;8.70;;;2.80;;
28968;SDS011;16076;51.194;6.642;2022-07-29T04:47:55;8.75;;;3.25;;
28968;SDS011;16076;51.194;6.642;2022-07-29T04:50:23;5.55;;;3.28;;
28968;SDS011;16076;51.194;6.642;2022-07-29T04:52:49;5.55;;;3.58;;
28968;SDS011;16076;51.194;6.642;2022-07-29T04:55:15;12.05;;;4.15;;
28968;SDS011;16076;51.194;6.642;2022-07-29T04:57:41;7.32;;;3.58;;
28968;SDS011;16076;51.194;6.642;2022-07-29T05:00:07;9.55;;;4.00;;
28968;SDS011;16076;51.194;6.642;2022-07-29T05:02:33;7.57;;;3.75;;
28968;SDS011;16076;51.194;6.642;2022-07-29T05:04:59;7.72;;;4.07;;
28968;SDS011;16076;51.194;6.642;2022-07-29T05:07:25;11.15;;;3.95;;
28968;SDS011;16076;51.194;6.642;2022-07-29T05:09:50;8.02;;;4.30;;
28968;SDS011;16076;51.194;6.642;2022-07-29T05:12:17;9.60;;;4.30;;
28968;SDS011;16076;51.194;6.642;2022-07-29T05:14:47;9.60;;;4.32;;
28968;SDS011;16076;51.194;6.642;2022-07-29T05:17:13;9.98;;;4.40;;
28968;SDS011;16076;51.194;6.642;2022-07-29T05:19:39;11.23;;;4.40;;
28968;SDS011;16076;51.194;6.642;2022-07-29T05:22:07;8.27;;;3.88;;
28968;SDS011;16076;51.194;6.642;2022-07-29T05:24:37;12.05;;;4.40;;
28968;SDS011;16076;51.194;6.642;2022-07-29T05:27:05;8.00;;;3.50;;
28968;SDS011;16076;51.194;6.642;2022-07-29T05:29:31;8.57;;;3.80;;
28968;SDS011;16076;51.194;6.642;2022-07-29T05:31:57;6.60;;;3.30;;
28968;SDS011;16076;51.194;6.642;2022-07-29T05:34:23;11.05;;;4.22;;
28968;SDS011;16076;51.194;6.642;2022-07-29T05:36:52;7.72;;;3.50;;
28968;SDS011;16076;51.194;6.642;2022-07-29T05:39:18;7.32;;;3.58;;
28968;SDS011;16076;51.194;6.642;2022-07-29T05:41:44;5.25;;;3.28;;
28968;SDS011;16076;51.194;6.642;2022-07-29T05:44:09;12.65;;;4.25;;
28968;SDS011;16076;51.194;6.642;2022-07-29T05:46:38;7.97;;;2.83;;
28968;SDS011;16076;51.194;6.642;2022-07-29T05:49:07;4.53;;;2.95;;
28968;SDS011;16076;51.194;6.642;2022-07-29T05:51:34;6.60;;;3.33;;
28968;SDS011;16076;51.194;6.642;2022-07-29T05:53:59;5.38;;;3.45;;
28968;SDS011;16076;51.194;6.642;2022-07-29T05:56:25;6.70;;;2.97;;
28968;SDS011;16076;51.194;6.642;2022-07-29T05:58:51;6.75;;;3.00;;
28968;SDS011;16076;51.194;6.642;2022-07-29T06:01:17;5.53;;;3.05;;
28968;SDS011;16076;51.194;6.642;2022-07-29T06:03:46;6.38;;;2.83;;
28968;SDS011;16076;51.194;6.642;2022-07-29T06:06:14;6.43;;;2.65;;
28968;SDS011;16076;51.194;6.642;2022-07-29T06:08:42;6.03;;;3.13;;
28968;SDS011;16076;51.194;6.642;2022-07-29T06:11:08;5.07;;;3.10;;
28968;SDS011;16076;51.194;6.642;2022-07-29T06:13:33;4.53;;;3.30;;
28968;SDS011;16076;51.194;6.642;2022-07-29T06:15:59;5.40;;;2.75;;
28968;SDS011;16076;51.194;6.642;2022-07-29T06:18:25;8.18;;;3.28;;
28968;SDS011;16076;51.194;6.642;2022-07-29T06:20:53;5.63;;;3.20;;
28968;SDS011;16076;51.194;6.642;2022-07-29T06:23:19;8.52;;;3.55;;
28968;SDS011;16076;51.194;6.642;2022-07-29T06:25:46;8.65;;;3.50;;
28968;SDS011;16076;51.194;6.642;2022-07-29T06:28:14;8.00;;;2.90;;
28968;SDS011;16076;51.194;6.642;2022-07-29T06:30:40;12.95;;;3.08;;
28968;SDS011;16076;51.194;6.642;2022-07-29T06:33:08;5.50;;;3.03;;
28968;SDS011;16076;51.194;6.642;2022-07-29T06:35:34;8.55;;;3.38;;
28968;SDS011;16076;51.194;6.642;2022-07-29T06:38:01;10.98;;;3.20;;
28968;SDS011;16076;51.194;6.642;2022-07-29T06:40:28;5.25;;;2.88;;
28968;SDS011;16076;51.194;6.642;2022-07-29T06:43:15;6.88;;;3.65;;
28968;SDS011;16076;51.194;6.642;2022-07-29T06:45:41;8.60;;;3.53;;
28968;SDS011;16076;51.194;6.642;2022-07-29T06:48:08;8.00;;;3.30;;
28968;SDS011;16076;51.194;6.642;2022-07-29T06:50:34;5.82;;;3.13;;
28968;SDS011;16076;51.194;6.642;2022-07-29T06:53:02;9.60;;;3.13;;
28968;SDS011;16076;51.194;6.642;2022-07-29T06:55:28;7.82;;;2.90;;
28968;SDS011;16076;51.194;6.642;2022-07-29T06:57:56;5.60;;;3.17;;
28968;SDS011;16076;51.194;6.642;2022-07-29T07:00:24;9.68;;;3.78;;
28968;SDS011;16076;51.194;6.642;2022-07-29T07:02:53;8.02;;;3.97;;
28968;SDS011;16076;51.194;6.642;2022-07-29T07:05:19;5.47;;;3.03;;
28968;SDS011;16076;51.194;6.642;2022-07-29T07:07:55;10.60;;;4.55;;
28968;SDS011;16076;51.194;6.642;2022-07-29T07:10:20;5.68;;;3.60;;
28968;SDS011;16076;51.194;6.642;2022-07-29T07:12:49;6.38;;;3.15;;
28968;SDS011;16076;51.194;6.642;2022-07-29T07:15:17;6.75;;;4.05;;
28968;SDS011;16076;51.194;6.642;2022-07-29T07:20:13;9.25;;;3.60;;
28968;SDS011;16076;51.194;6.642;2022-07-29T07:22:39;9.75;;;3.70;;
28968;SDS011;16076;51.194;6.642;2022-07-29T07:25:05;5.28;;;2.95;;
28968;SDS011;16076;51.194;6.642;2022-07-29T07:27:34;7.68;;;3.58;;
28968;SDS011;16076;51.194;6.642;2022-07-29T07:30:00;9.80;;;4.60;;
28968;SDS011;16076;51.194;6.642;2022-07-29T07:32:26;7.47;;;3.50;;
28968;SDS011;16076;51.194;6.642;2022-07-29T07:34:51;7.50;;;3.38;;
28968;SDS011;16076;51.194;6.642;2022-07-29T07:37:17;7.63;;;3.47;;
28968;SDS011;16076;51.194;6.642;2022-07-29T07:39:46;8.45;;;4.32;;
28968;SDS011;16076;51.194;6.642;2022-07-29T07:42:11;5.00;;;3.10;;
28968;SDS011;16076;51.194;6.642;2022-07-29T07:44:38;9.70;;;3.70;;
28968;SDS011;16076;51.194;6.642;2022-07-29T07:47:06;4.53;;;3.08;;
28968;SDS011;16076;51.194;6.642;2022-07-29T07:49:32;6.53;;;3.10;;
28968;SDS011;16076;51.194;6.642;2022-07-29T07:51:58;10.40;;;3.83;;
28968;SDS011;16076;51.194;6.642;2022-07-29T07:54:24;8.77;;;3.88;;
28968;SDS011;16076;51.194;6.642;2022-07-29T07:56:54;5.95;;;3.33;;
28968;SDS011;16076;51.194;6.642;2022-07-29T07:59:20;9.13;;;3.90;;
28968;SDS011;16076;51.194;6.642;2022-07-29T08:01:48;6.30;;;3.60;;
28968;SDS011;16076;51.194;6.642;2022-07-29T08:04:14;8.18;;;3.85;;
28968;SDS011;16076;51.194;6.642;2022-07-29T08:06:40;5.97;;;3.50;;
28968;SDS011;16076;51.194;6.642;2022-07-29T08:09:06;9.30;;;3.72;;
28968;SDS011;16076;51.194;6.642;2022-07-29T08:11:36;5.10;;;3.33;;
28968;SDS011;16076;51.194;6.642;2022-07-29T08:14:04;8.40;;;3.55;;
28968;SDS011;16076;51.194;6.642;2022-07-29T08:16:30;14.35;;;3.75;;
28968;SDS011;16076;51.194;6.642;2022-07-29T08:18:59;6.53;;;3.03;;
28968;SDS011;16076;51.194;6.642;2022-07-29T08:21:24;8.57;;;3.28;;
28968;SDS011;16076;51.194;6.642;2022-07-29T08:23:51;7.13;;;3.65;;
28968;SDS011;16076;51.194;6.642;2022-07-29T08:26:42;7.22;;;3.05;;
28968;SDS011;16076;51.194;6.642;2022-07-29T08:29:09;11.27;;;3.70;;
28968;SDS011;16076;51.194;6.642;2022-07-29T08:31:37;5.25;;;3.33;;
28968;SDS011;16076;51.194;6.642;2022-07-29T08:34:08;7.32;;;2.55;;
28968;SDS011;16076;51.194;6.642;2022-07-29T08:36:34;6.43;;;2.90;;
28968;SDS011;16076;51.194;6.642;2022-07-29T08:39:00;9.15;;;3.42;;
28968;SDS011;16076;51.194;6.642;2022-07-29T08:41:27;6.68;;;3.33;;
28968;SDS011;16076;51.194;6.642;2022-07-29T08:43:53;6.68;;;3.33;;
28968;SDS011;16076;51.194;6.642;2022-07-29T08:46:21;7.35;;;3.28;;
28968;SDS011;16076;51.194;6.642;2022-07-29T08:48:47;8.07;;;3.10;;
28968;SDS011;16076;51.194;6.642;2022-07-29T08:51:17;5.72;;;3.28;;
28968;SDS011;16076;51.194;6.642;2022-07-29T08:53:45;7.07;;;3.33;;
28968;SDS011;16076;51.194;6.642;2022-07-29T08:56:14;11.65;;;3.15;;
28968;SDS011;16076;51.194;6.642;2022-07-29T08:58:46;8.50;;;3.33;;
28968;SDS011;16076;51.194;6.642;2022-07-29T09:01:24;11.38;;;3.10;;
28968;SDS011;16076;51.194;6.642;2022-07-29T09:03:54;5.60;;;3.10;;
28968;SDS011;16076;51.194;6.642;2022-07-29T09:06:21;5.78;;;2.67;;
28968;SDS011;16076;51.194;6.642;2022-07-29T09:08:54;6.07;;;3.28;;
28968;SDS011;16076;51.194;6.642;2022-07-29T09:11:23;8.32;;;3.40;;
28968;SDS011;16076;51.194;6.642;2022-07-29T09:13:52;12.30;;;3.72;;
28968;SDS011;16076;51.194;6.642;2022-07-29T09:16:17;7.75;;;3.38;;
28968;SDS011;16076;51.194;6.642;2022-07-29T09:18:44;6.13;;;3.15;;
28968;SDS011;16076;51.194;6.642;2022-07-29T09:21:15;6.07;;;2.88;;
28968;SDS011;16076;51.194;6.642;2022-07-29T09:24:02;9.15;;;3.10;;
28968;SDS011;16076;51.194;6.642;2022-07-29T09:26:35;6.38;;;2.88;;
28968;SDS011;16076;51.194;6.642;2022-07-29T09:29:09;9.77;;;3.65;;
28968;SDS011;16076;51.194;6.642;2022-07-29T09:31:36;10.90;;;3.72;;
28968;SDS011;16076;51.194;6.642;2022-07-29T09:34:05;6.97;;;2.97;;
28968;SDS011;16076;51.194;6.642;2022-07-29T09:36:37;5.60;;;2.92;;
28968;SDS011;16076;51.194;6.642;2022-07-29T09:39:04;6.88;;;2.90;;
28968;SDS011;16076;51.194;6.642;2022-07-29T09:41:30;9.90;;;3.25;;
28968;SDS011;16076;51.194;6.642;2022-07-29T09:44:20;5.63;;;2.80;;
28968;SDS011;16076;51.194;6.642;2022-07-29T09:49:20;10.20;;;3.95;;
28968;SDS011;16076;51.194;6.642;2022-07-29T09:51:46;6.60;;;2.55;;
28968;SDS011;16076;51.194;6.642;2022-07-29T09:54:22;10.05;;;2.38;;
28968;SDS011;16076;51.194;6.642;2022-07-29T09:56:54;6.10;;;2.85;;
28968;SDS011;16076;51.194;6.642;2022-07-29T09:59:22;8.95;;;2.55;;
28968;SDS011;16076;51.194;6.642;2022-07-29T10:01:51;6.93;;;2.95;;
28968;SDS011;16076;51.194;6.642;2022-07-29T10:04:18;5.88;;;3.42;;
28968;SDS011;16076;51.194;6.642;2022-07-29T10:07:00;8.32;;;2.78;;
28968;SDS011;16076;51.194;6.642;2022-07-29T10:09:30;8.68;;;2.67;;
28968;SDS011;16076;51.194;6.642;2022-07-29T10:12:06;8.18;;;3.08;;
28968;SDS011;16076;51.194;6.642;2022-07-29T10:14:39;7.43;;;2.85;;
28968;SDS011;16076;51.194;6.642;2022-07-29T10:17:07;5.25;;;2.65;;
28968;SDS011;16076;51.194;6.642;2022-07-29T10:19:37;5.68;;;2.40;;
28968;SDS011;16076;51.194;6.642;2022-07-29T10:22:07;12.23;;;3.47;;
28968;SDS011;16076;51.194;6.642;2022-07-29T10:24:37;6.68;;;2.15;;
28968;SDS011;16076;51.194;6.642;2022-07-29T10:27:05;5.50;;;1.95;;
28968;SDS011;16076;51.194;6.642;2022-07-29T10:29:32;4.18;;;2.05;;
28968;SDS011;16076;51.194;6.642;2022-07-29T10:37:43;9.00;;;2.40;;
28968;SDS011;16076;51.194;6.642;2022-07-29T10:43:41;7.50;;;2.08;;
28968;SDS011;16076;51.194;6.642;2022-07-29T10:46:10;5.75;;;2.33;;
28968;SDS011;16076;51.194;6.642;2022-07-29T11:10:39;10.95;;;3.60;;
28968;SDS011;16076;51.194;6.642;2022-07-29T11:13:05;10.63;;;3.33;;
28968;SDS011;16076;51.194;6.642;2022-07-29T11:18:20;8.02;;;3.33;;
28968;SDS011;16076;51.194;6.642;2022-07-29T11:20:49;8.75;;;4.15;;
28968;SDS011;16076;51.194;6.642;2022-07-29T11:29:02;11.10;;;4.10;;
28968;SDS011;16076;51.194;6.642;2022-07-29T11:39:39;10.93;;;3.88;;
28968;SDS011;16076;51.194;6.642;2022-07-29T11:45:00;9.00;;;4.07;;
28968;SDS011;16076;51.194;6.642;2022-07-29T11:47:30;10.52;;;3.58;;
28968;SDS011;16076;51.194;6.642;2022-07-29T11:50:26;13.38;;;4.13;;
28968;SDS011;16076;51.194;6.642;2022-07-29T11:53:00;6.22;;;3.22;;
28968;SDS011;16076;51.194;6.642;2022-07-29T11:55:38;10.02;;;3.47;;
28968;SDS011;16076;51.194;6.642;2022-07-29T11:58:04;9.80;;;3.22;;
28968;SDS011;16076;51.194;6.642;2022-07-29T12:00:37;10.75;;;3.80;;
28968;SDS011;16076;51.194;6.642;2022-07-29T12:03:08;8.18;;;3.08;;
28968;SDS011;16076;51.194;6.642;2022-07-29T12:10:34;10.40;;;3.88;;
28968;SDS011;16076;51.194;6.642;2022-07-29T12:13:00;10.15;;;2.75;;
28968;SDS011;16076;51.194;6.642;2022-07-29T12:15:28;8.95;;;3.20;;
28968;SDS011;16076;51.194;6.642;2022-07-29T12:17:54;9.68;;;3.00;;
28968;SDS011;16076;51.194;6.642;2022-07-29T12:20:27;8.07;;;3.40;;
28968;SDS011;16076;51.194;6.642;2022-07-29T12:22:58;10.35;;;2.92;;
28968;SDS011;16076;51.194;6.642;2022-07-29T12:25:32;6.93;;;3.08;;
28968;SDS011;16076;51.194;6.642;2022-07-29T12:27:59;9.93;;;3.10;;
28968;SDS011;16076;51.194;6.642;2022-07-29T12:30:37;13.45;;;3.83;;
28968;SDS011;16076;51.194;6.642;2022-07-29T12:35:56;12.60;;;4.65;;
28968;SDS011;16076;51.194;6.642;2022-07-29T12:40:49;12.27;;;4.07;;
28968;SDS011;16076;51.194;6.642;2022-07-29T12:43:19;18.30;;;5.25;;
28968;SDS011;16076;51.194;6.642;2022-07-29T12:45:49;15.30;;;4.65;;
28968;SDS011;16076;51.194;6.642;2022-07-29T12:48:38;13.00;;;4.47;;
28968;SDS011;16076;51.194;6.642;2022-07-29T12:51:07;11.52;;;3.47;;
28968;SDS011;16076;51.194;6.642;2022-07-29T12:53:34;12.55;;;3.05;;
28968;SDS011;16076;51.194;6.642;2022-07-29T12:56:01;11.45;;;3.90;;
28968;SDS011;16076;51.194;6.642;2022-07-29T12:58:30;5.68;;;3.05;;
28968;SDS011;16076;51.194;6.642;2022-07-29T13:01:03;7.55;;;3.17;;
28968;SDS011;16076;51.194;6.642;2022-07-29T13:03:45;10.80;;;3.70;;
28968;SDS011;16076;51.194;6.642;2022-07-29T13:06:34;5.95;;;2.22;;
28968;SDS011;16076;51.194;6.642;2022-07-29T13:09:01;5.50;;;2.42;;
28968;SDS011;16076;51.194;6.642;2022-07-29T13:14:09;4.15;;;2.50;;
28968;SDS011;16076;51.194;6.642;2022-07-29T13:19:42;5.00;;;1.98;;
28968;SDS011;16076;51.194;6.642;2022-07-29T13:22:13;5.88;;;2.28;;
28968;SDS011;16076;51.194;6.642;2022-07-29T13:24:56;6.80;;;2.25;;
28968;SDS011;16076;51.194;6.642;2022-07-29T13:27:28;5.17;;;2.00;;
28968;SDS011;16076;51.194;6.642;2022-07-29T13:29:58;4.55;;;2.05;;
28968;SDS011;16076;51.194;6.642;2022-07-29T13:32:26;7.35;;;2.20;;
28968;SDS011;16076;51.194;6.642;2022-07-29T13:34:53;6.22;;;2.40;;
28968;SDS011;16076;51.194;6.642;2022-07-29T13:37:23;8.30;;;2.80;;
28968;SDS011;16076;51.194;6.642;2022-07-29T13:39:49;6.70;;;2.50;;
28968;SDS011;16076;51.194;6.642;2022-07-29T13:42:14;7.03;;;2.63;;
28968;SDS011;16076;51.194;6.642;2022-07-29T13:44:43;8.13;;;2.28;;
28968;SDS011;16076;51.194;6.642;2022-07-29T13:47:11;5.93;;;2.33;;
28968;SDS011;16076;51.194;6.642;2022-07-29T13:49:41;3.53;;;1.70;;
28968;SDS011;16076;51.194;6.642;2022-07-29T13:52:06;4.78;;;1.95;;
28968;SDS011;16076;51.194;6.642;2022-07-29T13:54:32;4.47;;;2.40;;
28968;SDS011;16076;51.194;6.642;2022-07-29T13:57:04;4.20;;;1.67;;
28968;SDS011;16076;51.194;6.642;2022-07-29T13:59:30;4.43;;;1.90;;
28968;SDS011;16076;51.194;6.642;2022-07-29T14:01:57;2.80;;;1.35;;
28968;SDS011;16076;51.194;6.642;2022-07-29T14:04:25;4.00;;;1.73;;
28968;SDS011;16076;51.194;6.642;2022-07-29T14:06:53;8.77;;;1.77;;
28968;SDS011;16076;51.194;6.642;2022-07-29T14:09:19;5.70;;;1.73;;
28968;SDS011;16076;51.194;6.642;2022-07-29T14:11:47;7.10;;;1.70;;
28968;SDS011;16076;51.194;6.642;2022-07-29T14:14:15;7.50;;;1.67;;
28968;SDS011;16076;51.194;6.642;2022-07-29T14:16:43;6.25;;;1.63;;
28968;SDS011;16076;51.194;6.642;2022-07-29T14:19:09;3.65;;;1.50;;
28968;SDS011;16076;51.194;6.642;2022-07-29T14:21:36;3.38;;;1.30;;
28968;SDS011;16076;51.194;6.642;2022-07-29T14:24:05;7.95;;;2.25;;
28968;SDS011;16076;51.194;6.642;2022-07-29T14:26:33;7.18;;;1.13;;
28968;SDS011;16076;51.194;6.642;2022-07-29T14:29:01;3.92;;;1.58;;
28968;SDS011;16076;51.194;6.642;2022-07-29T14:31:29;3.50;;;1.00;;
28968;SDS011;16076;51.194;6.642;2022-07-29T14:33:55;4.88;;;1.38;;
28968;SDS011;16076;51.194;6.642;2022-07-29T14:36:21;7.07;;;1.20;;
28968;SDS011;16076;51.194;6.642;2022-07-29T14:38:46;3.95;;;1.58;;
28968;SDS011;16076;51.194;6.642;2022-07-29T14:41:12;4.30;;;1.17;;
28968;SDS011;16076;51.194;6.642;2022-07-29T14:43:38;7.20;;;1.42;;
28968;SDS011;16076;51.194;6.642;2022-07-29T14:46:04;3.88;;;1.50;;
28968;SDS011;16076;51.194;6.642;2022-07-29T14:48:30;1.67;;;1.00;;
28968;SDS011;16076;51.194;6.642;2022-07-29T14:50:55;2.50;;;1.05;;
28968;SDS011;16076;51.194;6.642;2022-07-29T14:53:21;2.55;;;1.00;;
28968;SDS011;16076;51.194;6.642;2022-07-29T14:55:47;3.55;;;1.00;;
28968;SDS011;16076;51.194;6.642;2022-07-29T14:58:14;9.80;;;1.50;;
28968;SDS011;16076;51.194;6.642;2022-07-29T15:00:42;3.65;;;0.82;;
28968;SDS011;16076;51.194;6.642;2022-07-29T15:03:07;3.65;;;1.30;;
28968;SDS011;16076;51.194;6.642;2022-07-29T15:05:38;6.80;;;1.45;;
28968;SDS011;16076;51.194;6.642;2022-07-29T15:08:04;2.42;;;0.90;;
28968;SDS011;16076;51.194;6.642;2022-07-29T15:10:30;2.95;;;1.30;;
28968;SDS011;16076;51.194;6.642;2022-07-29T15:12:56;2.95;;;1.10;;
28968;SDS011;16076;51.194;6.642;2022-07-29T15:15:22;3.10;;;1.10;;
28968;SDS011;16076;51.194;6.642;2022-07-29T15:17:48;3.60;;;1.35;;
28968;SDS011;16076;51.194;6.642;2022-07-29T15:20:13;2.65;;;1.10;;
28968;SDS011;16076;51.194;6.642;2022-07-29T15:22:39;4.55;;;1.38;;
28968;SDS011;16076;51.194;6.642;2022-07-29T15:25:08;2.38;;;1.23;;
28968;SDS011;16076;51.194;6.642;2022-07-29T15:27:34;3.20;;;1.10;;
28968;SDS011;16076;51.194;6.642;2022-07-29T15:30:00;2.53;;;1.08;;
28968;SDS011;16076;51.194;6.642;2022-07-29T15:32:26;5.30;;;0.90;;
28968;SDS011;16076;51.194;6.642;2022-07-29T15:34:54;4.88;;;1.27;;
28968;SDS011;16076;51.194;6.642;2022-07-29T15:37:20;3.22;;;1.30;;
28968;SDS011;16076;51.194;6.642;2022-07-29T15:39:45;3.17;;;1.30;;
28968;SDS011;16076;51.194;6.642;2022-07-29T15:42:14;6.35;;;1.35;;
28968;SDS011;16076;51.194;6.642;2022-07-29T15:44:40;5.53;;;1.30;;
28968;SDS011;16076;51.194;6.642;2022-07-29T15:47:05;2.45;;;1.20;;
28968;SDS011;16076;51.194;6.642;2022-07-29T15:49:38;5.30;;;1.25;;
28968;SDS011;16076;51.194;6.642;2022-07-29T15:52:06;4.18;;;1.50;;
28968;SDS011;16076;51.194;6.642;2022-07-29T15:54:33;2.42;;;1.02;;
28968;SDS011;16076;51.194;6.642;2022-07-29T15:57:03;5.35;;;1.25;;
28968;SDS011;16076;51.194;6.642;2022-07-29T15:59:31;2.40;;;1.23;;
28968;SDS011;16076;51.194;6.642;2022-07-29T16:01:57;5.15;;;1.50;;
28968;SDS011;16076;51.194;6.642;2022-07-29T16:04:23;2.65;;;1.25;;
28968;SDS011;16076;51.194;6.642;2022-07-29T16:06:49;2.88;;;1.33;;
28968;SDS011;16076;51.194;6.642;2022-07-29T16:09:17;4.15;;;1.63;;
28968;SDS011;16076;51.194;6.642;2022-07-29T16:11:43;7.97;;;1.65;;
28968;SDS011;16076;51.194;6.642;2022-07-29T16:16:41;2.65;;;1.27;;
28968;SDS011;16076;51.194;6.642;2022-07-29T16:19:09;3.75;;;1.35;;
28968;SDS011;16076;51.194;6.642;2022-07-29T16:21:36;7.70;;;1.52;;
28968;SDS011;16076;51.194;6.642;2022-07-29T16:24:02;5.85;;;1.55;;
28968;SDS011;16076;51.194;6.642;2022-07-29T16:26:31;7.03;;;1.17;;
28968;SDS011;16076;51.194;6.642;2022-07-29T16:29:00;3.65;;;1.58;;